sensor_id;sensor_type;location;lat;lon;timestamp;pressure;altitude;pressure_sealevel;temperature;humidity
62124;BME280;48110;47.532;19.078;2022-07-19T00:02:34;100950.56;;;18.73;52.90
62124;BME280;48110;47.532;19.078;2022-07-19T00:05:37;100950.13;;;18.70;54.26
62124;BME280;48110;47.532;19.078;2022-07-19T00:08:40;100952.84;;;18.63;55.70
62124;BME280;48110;47.532;19.078;2022-07-19T00:11:43;100944.75;;;18.56;56.07
62124;BME280;48110;47.532;19.078;2022-07-19T00:14:45;100954.88;;;18.54;56.16
62124;BME280;48110;47.532;19.078;2022-07-19T00:17:48;100951.38;;;18.54;57.23
62124;BME280;48110;47.532;19.078;2022-07-19T00:20:51;100952.16;;;18.48;56.93
62124;BME280;48110;47.532;19.078;2022-07-19T00:23:54;100955.06;;;18.46;57.63
62124;BME280;48110;47.532;19.078;2022-07-19T00:26:56;100945.34;;;18.39;56.85
62124;BME280;48110;47.532;19.078;2022-07-19T00:29:59;100954.63;;;18.30;56.29
62124;BME280;48110;47.532;19.078;2022-07-19T00:33:02;100952.75;;;18.23;55.82
62124;BME280;48110;47.532;19.078;2022-07-19T00:36:07;100952.72;;;18.17;55.99
62124;BME280;48110;47.532;19.078;2022-07-19T00:39:09;100953.53;;;18.11;56.89
62124;BME280;48110;47.532;19.078;2022-07-19T00:42:12;100949.59;;;18.07;56.84
62124;BME280;48110;47.532;19.078;2022-07-19T00:45:17;100953.13;;;18.01;56.29
62124;BME280;48110;47.532;19.078;2022-07-19T00:48:20;100952.66;;;17.97;56.14
62124;BME280;48110;47.532;19.078;2022-07-19T00:51:22;100951.84;;;17.97;56.30
62124;BME280;48110;47.532;19.078;2022-07-19T00:54:27;100950.06;;;18.30;54.91
62124;BME280;48110;47.532;19.078;2022-07-19T00:57:31;100956.91;;;18.52;52.87
62124;BME280;48110;47.532;19.078;2022-07-19T01:00:35;100953.22;;;18.60;51.17
62124;BME280;48110;47.532;19.078;2022-07-19T01:03:39;100949.94;;;18.78;50.28
62124;BME280;48110;47.532;19.078;2022-07-19T01:06:42;100951.38;;;18.67;49.70
62124;BME280;48110;47.532;19.078;2022-07-19T01:09:46;100947.25;;;18.58;49.88
62124;BME280;48110;47.532;19.078;2022-07-19T01:12:49;100950.72;;;18.52;50.35
62124;BME280;48110;47.532;19.078;2022-07-19T01:15:53;100941.81;;;18.45;50.61
62124;BME280;48110;47.532;19.078;2022-07-19T01:18:55;100942.00;;;18.30;50.22
62124;BME280;48110;47.532;19.078;2022-07-19T01:21:59;100939.09;;;18.12;50.82
62124;BME280;48110;47.532;19.078;2022-07-19T01:25:01;100942.75;;;17.98;51.18
62124;BME280;48110;47.532;19.078;2022-07-19T01:28:06;100949.16;;;17.90;51.48
62124;BME280;48110;47.532;19.078;2022-07-19T01:31:09;100948.28;;;17.83;51.96
62124;BME280;48110;47.532;19.078;2022-07-19T01:34:12;100940.44;;;17.75;52.19
62124;BME280;48110;47.532;19.078;2022-07-19T01:37:15;100944.31;;;17.66;52.90
62124;BME280;48110;47.532;19.078;2022-07-19T01:40:19;100927.50;;;17.51;53.13
62124;BME280;48110;47.532;19.078;2022-07-19T01:43:21;100938.19;;;17.44;53.16
62124;BME280;48110;47.532;19.078;2022-07-19T01:46:24;100925.97;;;17.35;53.31
62124;BME280;48110;47.532;19.078;2022-07-19T01:49:27;100933.97;;;17.28;53.55
62124;BME280;48110;47.532;19.078;2022-07-19T01:52:30;100929.00;;;17.25;54.11
62124;BME280;48110;47.532;19.078;2022-07-19T01:55:32;100940.75;;;17.24;54.28
62124;BME280;48110;47.532;19.078;2022-07-19T01:58:35;100938.25;;;17.16;54.97
62124;BME280;48110;47.532;19.078;2022-07-19T02:01:38;100933.22;;;17.07;56.34
62124;BME280;48110;47.532;19.078;2022-07-19T02:04:41;100935.28;;;17.05;55.87
62124;BME280;48110;47.532;19.078;2022-07-19T02:07:44;100937.41;;;17.16;56.46
62124;BME280;48110;47.532;19.078;2022-07-19T02:10:47;100937.28;;;17.30;56.14
62124;BME280;48110;47.532;19.078;2022-07-19T02:13:50;100939.38;;;17.35;56.28
62124;BME280;48110;47.532;19.078;2022-07-19T02:16:53;100947.97;;;17.24;56.50
62124;BME280;48110;47.532;19.078;2022-07-19T02:19:56;100950.81;;;17.16;57.05
62124;BME280;48110;47.532;19.078;2022-07-19T02:22:59;100948.25;;;17.01;58.62
62124;BME280;48110;47.532;19.078;2022-07-19T02:26:01;100951.91;;;16.93;60.39
62124;BME280;48110;47.532;19.078;2022-07-19T02:29:05;100947.09;;;16.82;59.71
62124;BME280;48110;47.532;19.078;2022-07-19T02:32:08;100958.19;;;16.79;59.61
62124;BME280;48110;47.532;19.078;2022-07-19T02:35:12;100963.09;;;16.76;59.96
62124;BME280;48110;47.532;19.078;2022-07-19T02:38:15;100954.25;;;17.03;60.49
62124;BME280;48110;47.532;19.078;2022-07-19T02:41:18;100944.94;;;16.99;60.81
62124;BME280;48110;47.532;19.078;2022-07-19T02:44:20;100953.78;;;17.00;61.98
62124;BME280;48110;47.532;19.078;2022-07-19T02:47:23;100966.75;;;16.96;62.07
62124;BME280;48110;47.532;19.078;2022-07-19T02:50:26;100959.50;;;16.90;62.37
62124;BME280;48110;47.532;19.078;2022-07-19T02:53:29;100953.94;;;16.91;63.55
62124;BME280;48110;47.532;19.078;2022-07-19T02:56:32;100954.59;;;16.93;63.83
62124;BME280;48110;47.532;19.078;2022-07-19T02:59:34;100954.84;;;16.99;63.78
62124;BME280;48110;47.532;19.078;2022-07-19T03:02:37;100957.28;;;16.93;64.14
62124;BME280;48110;47.532;19.078;2022-07-19T03:05:40;100960.38;;;16.97;64.40
62124;BME280;48110;47.532;19.078;2022-07-19T03:08:43;100972.44;;;17.08;64.28
62124;BME280;48110;47.532;19.078;2022-07-19T03:11:46;100966.66;;;17.11;63.96
62124;BME280;48110;47.532;19.078;2022-07-19T03:14:49;100972.44;;;17.08;64.98
62124;BME280;48110;47.532;19.078;2022-07-19T03:17:52;100971.94;;;16.98;65.93
62124;BME280;48110;47.532;19.078;2022-07-19T03:20:55;100974.56;;;16.91;66.12
62124;BME280;48110;47.532;19.078;2022-07-19T03:23:58;100971.44;;;16.87;66.54
62124;BME280;48110;47.532;19.078;2022-07-19T03:27:00;100971.97;;;16.76;67.63
62124;BME280;48110;47.532;19.078;2022-07-19T03:30:04;100975.87;;;16.74;67.78
62124;BME280;48110;47.532;19.078;2022-07-19T03:33:07;100979.81;;;16.78;67.75
62124;BME280;48110;47.532;19.078;2022-07-19T03:36:10;100978.16;;;16.77;68.27
62124;BME280;48110;47.532;19.078;2022-07-19T03:39:13;100978.75;;;16.72;68.30
62124;BME280;48110;47.532;19.078;2022-07-19T03:42:15;100990.69;;;16.70;68.05
62124;BME280;48110;47.532;19.078;2022-07-19T03:45:18;100985.50;;;16.68;67.91
62124;BME280;48110;47.532;19.078;2022-07-19T03:48:21;100988.03;;;16.76;68.19
62124;BME280;48110;47.532;19.078;2022-07-19T03:51:24;100988.59;;;16.93;66.27
62124;BME280;48110;47.532;19.078;2022-07-19T03:54:27;100991.97;;;17.02;64.84
62124;BME280;48110;47.532;19.078;2022-07-19T03:57:30;101000.50;;;17.12;64.64
62124;BME280;48110;47.532;19.078;2022-07-19T04:00:33;101011.28;;;17.18;64.53
62124;BME280;48110;47.532;19.078;2022-07-19T04:03:39;101013.16;;;17.24;64.56
62124;BME280;48110;47.532;19.078;2022-07-19T04:06:42;101014.00;;;17.25;64.32
62124;BME280;48110;47.532;19.078;2022-07-19T04:09:45;101005.56;;;17.28;63.57
62124;BME280;48110;47.532;19.078;2022-07-19T04:12:48;101005.59;;;17.34;63.07
62124;BME280;48110;47.532;19.078;2022-07-19T04:15:50;101012.22;;;17.38;62.36
62124;BME280;48110;47.532;19.078;2022-07-19T04:18:53;101007.56;;;17.47;62.42
62124;BME280;48110;47.532;19.078;2022-07-19T04:21:56;101017.16;;;17.63;61.81
62124;BME280;48110;47.532;19.078;2022-07-19T04:24:59;101011.00;;;17.69;62.11
62124;BME280;48110;47.532;19.078;2022-07-19T04:28:03;101018.25;;;17.75;62.20
62124;BME280;48110;47.532;19.078;2022-07-19T04:31:05;101021.41;;;17.85;61.77
62124;BME280;48110;47.532;19.078;2022-07-19T04:34:08;101035.06;;;17.97;61.21
62124;BME280;48110;47.532;19.078;2022-07-19T04:37:11;101028.69;;;17.98;61.41
62124;BME280;48110;47.532;19.078;2022-07-19T04:40:14;101025.62;;;18.07;61.23
62124;BME280;48110;47.532;19.078;2022-07-19T04:43:17;101023.78;;;18.14;62.22
62124;BME280;48110;47.532;19.078;2022-07-19T04:46:20;101028.38;;;18.27;62.01
62124;BME280;48110;47.532;19.078;2022-07-19T04:49:26;101020.31;;;18.27;61.45
62124;BME280;48110;47.532;19.078;2022-07-19T04:52:28;101024.88;;;18.33;61.63
62124;BME280;48110;47.532;19.078;2022-07-19T04:55:32;101012.94;;;18.49;61.09
62124;BME280;48110;47.532;19.078;2022-07-19T04:58:35;101015.47;;;18.63;58.33
62124;BME280;48110;47.532;19.078;2022-07-19T05:01:37;101017.94;;;18.72;57.46
62124;BME280;48110;47.532;19.078;2022-07-19T05:04:41;101018.56;;;18.80;57.01
62124;BME280;48110;47.532;19.078;2022-07-19T05:07:43;101016.13;;;18.92;56.56
62124;BME280;48110;47.532;19.078;2022-07-19T05:10:46;101019.00;;;19.03;54.90
62124;BME280;48110;47.532;19.078;2022-07-19T05:13:49;101025.41;;;19.09;54.48
62124;BME280;48110;47.532;19.078;2022-07-19T05:16:52;101027.25;;;19.28;54.83
62124;BME280;48110;47.532;19.078;2022-07-19T05:19:54;101022.91;;;19.27;51.39
62124;BME280;48110;47.532;19.078;2022-07-19T05:22:57;101029.91;;;19.41;49.77
62124;BME280;48110;47.532;19.078;2022-07-19T05:26:00;101025.19;;;19.50;50.44
62124;BME280;48110;47.532;19.078;2022-07-19T05:29:03;101022.91;;;19.53;49.71
62124;BME280;48110;47.532;19.078;2022-07-19T05:32:06;101014.00;;;19.60;50.22
62124;BME280;48110;47.532;19.078;2022-07-19T05:35:09;101019.97;;;19.62;50.34
62124;BME280;48110;47.532;19.078;2022-07-19T05:38:12;101018.50;;;19.72;49.86
62124;BME280;48110;47.532;19.078;2022-07-19T05:41:15;101017.47;;;19.73;49.81
62124;BME280;48110;47.532;19.078;2022-07-19T05:44:25;101022.16;;;19.91;49.23
62124;BME280;48110;47.532;19.078;2022-07-19T05:47:28;101008.66;;;20.04;48.08
62124;BME280;48110;47.532;19.078;2022-07-19T05:50:31;101020.56;;;20.21;47.60
62124;BME280;48110;47.532;19.078;2022-07-19T05:53:35;101016.41;;;20.32;46.99
62124;BME280;48110;47.532;19.078;2022-07-19T05:56:38;101016.53;;;20.44;46.61
62124;BME280;48110;47.532;19.078;2022-07-19T05:59:41;101015.16;;;20.66;45.03
62124;BME280;48110;47.532;19.078;2022-07-19T06:02:44;101014.44;;;20.77;44.70
62124;BME280;48110;47.532;19.078;2022-07-19T06:05:47;101012.66;;;20.96;45.36
62124;BME280;48110;47.532;19.078;2022-07-19T06:08:50;101016.25;;;21.14;45.81
62124;BME280;48110;47.532;19.078;2022-07-19T06:11:53;101014.81;;;21.30;46.35
62124;BME280;48110;47.532;19.078;2022-07-19T06:14:55;101019.25;;;21.24;46.73
62124;BME280;48110;47.532;19.078;2022-07-19T06:17:58;101020.16;;;21.37;46.58
62124;BME280;48110;47.532;19.078;2022-07-19T06:21:10;101016.81;;;21.41;46.44
62124;BME280;48110;47.532;19.078;2022-07-19T06:24:14;101028.62;;;21.40;46.69
62124;BME280;48110;47.532;19.078;2022-07-19T06:27:17;101024.63;;;21.49;46.08
62124;BME280;48110;47.532;19.078;2022-07-19T06:30:19;101019.13;;;21.38;45.66
62124;BME280;48110;47.532;19.078;2022-07-19T06:33:22;101016.97;;;21.46;45.55
62124;BME280;48110;47.532;19.078;2022-07-19T06:36:25;101022.97;;;21.66;44.86
62124;BME280;48110;47.532;19.078;2022-07-19T06:39:29;101019.53;;;21.78;44.95
62124;BME280;48110;47.532;19.078;2022-07-19T06:42:32;101027.44;;;21.97;44.95
62124;BME280;48110;47.532;19.078;2022-07-19T06:45:35;101019.84;;;22.06;43.68
62124;BME280;48110;47.532;19.078;2022-07-19T06:48:38;101022.03;;;22.27;44.43
62124;BME280;48110;47.532;19.078;2022-07-19T06:51:41;101022.44;;;22.42;41.99
62124;BME280;48110;47.532;19.078;2022-07-19T06:54:44;101019.19;;;22.52;41.42
62124;BME280;48110;47.532;19.078;2022-07-19T06:57:46;101012.38;;;22.79;40.78
62124;BME280;48110;47.532;19.078;2022-07-19T07:00:49;101008.50;;;23.10;40.29
62124;BME280;48110;47.532;19.078;2022-07-19T07:03:54;101007.56;;;23.39;40.61
62124;BME280;48110;47.532;19.078;2022-07-19T07:06:57;101009.91;;;23.59;40.01
62124;BME280;48110;47.532;19.078;2022-07-19T07:10:00;101016.59;;;23.80;39.36
62124;BME280;48110;47.532;19.078;2022-07-19T07:13:11;100999.28;;;24.21;38.59
62124;BME280;48110;47.532;19.078;2022-07-19T07:16:14;101007.31;;;24.44;38.14
62124;BME280;48110;47.532;19.078;2022-07-19T07:19:17;101003.16;;;24.70;36.52
62124;BME280;48110;47.532;19.078;2022-07-19T07:22:20;101002.09;;;25.04;35.69
62124;BME280;48110;47.532;19.078;2022-07-19T07:25:23;100999.19;;;25.44;35.39
62124;BME280;48110;47.532;19.078;2022-07-19T07:28:25;101002.44;;;25.63;34.90
62124;BME280;48110;47.532;19.078;2022-07-19T07:31:28;101000.22;;;26.04;35.13
62124;BME280;48110;47.532;19.078;2022-07-19T07:34:31;100988.38;;;26.36;34.73
62124;BME280;48110;47.532;19.078;2022-07-19T07:37:38;100994.13;;;27.04;32.37
62124;BME280;48110;47.532;19.078;2022-07-19T07:40:41;100994.81;;;27.68;31.07
62124;BME280;48110;47.532;19.078;2022-07-19T07:43:44;100993.91;;;28.15;29.63
62124;BME280;48110;47.532;19.078;2022-07-19T07:46:47;100987.06;;;29.54;27.74
62124;BME280;48110;47.532;19.078;2022-07-19T07:49:50;100990.44;;;30.05;26.84
62124;BME280;48110;47.532;19.078;2022-07-19T07:52:53;100999.59;;;30.29;26.46
62124;BME280;48110;47.532;19.078;2022-07-19T07:55:55;100994.56;;;30.41;25.92
62124;BME280;48110;47.532;19.078;2022-07-19T07:59:04;100997.13;;;31.00;25.00
62124;BME280;48110;47.532;19.078;2022-07-19T08:02:07;100987.59;;;31.50;23.69
62124;BME280;48110;47.532;19.078;2022-07-19T08:05:10;100986.69;;;32.03;23.44
62124;BME280;48110;47.532;19.078;2022-07-19T08:08:14;100983.78;;;32.50;23.22
62124;BME280;48110;47.532;19.078;2022-07-19T08:11:17;100988.81;;;33.27;21.37
62124;BME280;48110;47.532;19.078;2022-07-19T08:14:21;100989.34;;;33.70;20.92
62124;BME280;48110;47.532;19.078;2022-07-19T08:17:24;100984.69;;;34.20;20.64
62124;BME280;48110;47.532;19.078;2022-07-19T08:20:27;100985.66;;;34.01;20.54
62124;BME280;48110;47.532;19.078;2022-07-19T08:23:30;100984.22;;;34.62;19.51
62124;BME280;48110;47.532;19.078;2022-07-19T08:26:32;100980.84;;;34.43;19.95
62124;BME280;48110;47.532;19.078;2022-07-19T08:29:35;100983.09;;;35.16;19.43
62124;BME280;48110;47.532;19.078;2022-07-19T08:32:39;100988.34;;;35.57;17.82
62124;BME280;48110;47.532;19.078;2022-07-19T08:35:42;100985.25;;;36.15;18.57
62124;BME280;48110;47.532;19.078;2022-07-19T08:38:45;100983.56;;;35.41;18.67
62124;BME280;48110;47.532;19.078;2022-07-19T08:41:48;100982.09;;;35.04;17.81
62124;BME280;48110;47.532;19.078;2022-07-19T08:44:53;100980.38;;;36.30;16.03
62124;BME280;48110;47.532;19.078;2022-07-19T08:47:59;100967.84;;;36.41;16.50
62124;BME280;48110;47.532;19.078;2022-07-19T08:51:03;100965.22;;;37.25;15.74
62124;BME280;48110;47.532;19.078;2022-07-19T08:54:07;100965.78;;;37.98;14.62
62124;BME280;48110;47.532;19.078;2022-07-19T08:57:10;100961.78;;;35.30;17.90
62124;BME280;48110;47.532;19.078;2022-07-19T09:00:34;100961.56;;;36.95;15.89
62124;BME280;48110;47.532;19.078;2022-07-19T09:03:37;100969.44;;;35.34;17.41
62124;BME280;48110;47.532;19.078;2022-07-19T09:06:46;100953.34;;;36.78;17.05
62124;BME280;48110;47.532;19.078;2022-07-19T09:09:49;100953.66;;;37.23;16.05
62124;BME280;48110;47.532;19.078;2022-07-19T09:13:12;100960.28;;;38.19;15.21
62124;BME280;48110;47.532;19.078;2022-07-19T09:16:15;100959.53;;;38.63;14.97
62124;BME280;48110;47.532;19.078;2022-07-19T09:19:19;100955.19;;;38.75;14.16
62124;BME280;48110;47.532;19.078;2022-07-19T09:22:22;100948.81;;;38.74;14.37
62124;BME280;48110;47.532;19.078;2022-07-19T09:25:37;100946.38;;;36.38;16.75
62124;BME280;48110;47.532;19.078;2022-07-19T09:28:40;100949.88;;;37.36;15.92
62124;BME280;48110;47.532;19.078;2022-07-19T09:35:05;100944.19;;;38.33;15.64
62124;BME280;48110;47.532;19.078;2022-07-19T09:41:19;100945.00;;;38.34;15.11
62124;BME280;48110;47.532;19.078;2022-07-19T09:44:22;100931.78;;;37.01;16.27
62124;BME280;48110;47.532;19.078;2022-07-19T09:47:51;100934.16;;;36.56;16.71
62124;BME280;48110;47.532;19.078;2022-07-19T09:50:54;100936.34;;;36.16;17.49
62124;BME280;48110;47.532;19.078;2022-07-19T09:53:57;100940.03;;;37.56;16.11
62124;BME280;48110;47.532;19.078;2022-07-19T09:57:01;100928.59;;;38.74;14.81
62124;BME280;48110;47.532;19.078;2022-07-19T10:00:16;100941.41;;;39.47;15.15
62124;BME280;48110;47.532;19.078;2022-07-19T10:03:23;100928.22;;;38.30;15.22
62124;BME280;48110;47.532;19.078;2022-07-19T10:06:29;100924.28;;;39.09;15.50
62124;BME280;48110;47.532;19.078;2022-07-19T10:09:34;100929.84;;;38.97;14.58
62124;BME280;48110;47.532;19.078;2022-07-19T10:12:40;100927.50;;;38.87;14.85
62124;BME280;48110;47.532;19.078;2022-07-19T10:15:57;100922.06;;;39.87;14.31
62124;BME280;48110;47.532;19.078;2022-07-19T10:19:50;100920.69;;;41.43;13.48
62124;BME280;48110;47.532;19.078;2022-07-19T10:22:34;100913.94;;;41.09;12.98
62124;BME280;48110;47.532;19.078;2022-07-19T10:25:45;100918.50;;;40.58;13.49
62124;BME280;48110;47.532;19.078;2022-07-19T10:28:49;100915.78;;;40.30;13.93
62124;BME280;48110;47.532;19.078;2022-07-19T10:32:13;100908.31;;;39.79;14.22
62124;BME280;48110;47.532;19.078;2022-07-19T10:35:31;100904.41;;;41.80;12.81
62124;BME280;48110;47.532;19.078;2022-07-19T10:38:34;100893.28;;;41.10;13.86
62124;BME280;48110;47.532;19.078;2022-07-19T10:41:37;100911.53;;;42.55;12.39
62124;BME280;48110;47.532;19.078;2022-07-19T10:48:10;100892.81;;;41.78;12.46
62124;BME280;48110;47.532;19.078;2022-07-19T10:51:32;100892.13;;;41.31;13.01
62124;BME280;48110;47.532;19.078;2022-07-19T10:54:37;100887.91;;;39.75;14.37
62124;BME280;48110;47.532;19.078;2022-07-19T10:57:40;100891.72;;;40.81;13.78
62124;BME280;48110;47.532;19.078;2022-07-19T11:00:45;100884.91;;;40.95;13.66
62124;BME280;48110;47.532;19.078;2022-07-19T11:03:51;100887.97;;;42.52;12.62
62124;BME280;48110;47.532;19.078;2022-07-19T11:07:09;100876.44;;;42.31;12.80
62124;BME280;48110;47.532;19.078;2022-07-19T11:10:24;100883.94;;;43.74;11.71
62124;BME280;48110;47.532;19.078;2022-07-19T11:13:28;100882.38;;;44.43;11.64
62124;BME280;48110;47.532;19.078;2022-07-19T11:16:31;100879.03;;;43.11;11.83
62124;BME280;48110;47.532;19.078;2022-07-19T11:19:34;100874.44;;;44.15;11.41
62124;BME280;48110;47.532;19.078;2022-07-19T11:22:41;100865.53;;;44.80;10.80
62124;BME280;48110;47.532;19.078;2022-07-19T11:25:44;100867.03;;;45.98;10.01
62124;BME280;48110;47.532;19.078;2022-07-19T11:28:50;100861.66;;;45.57;10.51
62124;BME280;48110;47.532;19.078;2022-07-19T11:31:53;100857.16;;;46.99;9.58
62124;BME280;48110;47.532;19.078;2022-07-19T11:35:02;100858.69;;;48.23;9.58
62124;BME280;48110;47.532;19.078;2022-07-19T11:38:05;100852.59;;;47.66;9.09
62124;BME280;48110;47.532;19.078;2022-07-19T11:41:13;100836.22;;;41.20;13.10
62124;BME280;48110;47.532;19.078;2022-07-19T11:44:16;100839.22;;;44.07;11.68
62124;BME280;48110;47.532;19.078;2022-07-19T11:47:20;100837.91;;;43.08;12.00
62124;BME280;48110;47.532;19.078;2022-07-19T11:50:26;100828.25;;;41.73;12.98
62124;BME280;48110;47.532;19.078;2022-07-19T11:53:33;100828.09;;;42.69;12.58
62124;BME280;48110;47.532;19.078;2022-07-19T11:56:36;100828.06;;;45.71;10.51
62124;BME280;48110;47.532;19.078;2022-07-19T11:59:39;100808.50;;;44.51;11.08
62124;BME280;48110;47.532;19.078;2022-07-19T12:03:01;100817.09;;;45.34;10.95
62124;BME280;48110;47.532;19.078;2022-07-19T12:06:09;100817.44;;;46.41;9.97
62124;BME280;48110;47.532;19.078;2022-07-19T12:09:16;100822.75;;;45.41;10.98
62124;BME280;48110;47.532;19.078;2022-07-19T12:12:20;100810.53;;;47.23;9.51
62124;BME280;48110;47.532;19.078;2022-07-19T12:15:23;100801.81;;;46.68;10.01
62124;BME280;48110;47.532;19.078;2022-07-19T12:18:46;100808.12;;;49.39;8.60
62124;BME280;48110;47.532;19.078;2022-07-19T12:21:50;100803.81;;;46.71;9.52
62124;BME280;48110;47.532;19.078;2022-07-19T12:24:53;100792.50;;;45.86;10.17
62124;BME280;48110;47.532;19.078;2022-07-19T12:28:03;100790.38;;;45.62;10.33
62124;BME280;48110;47.532;19.078;2022-07-19T12:31:06;100784.78;;;45.55;10.11
62124;BME280;48110;47.532;19.078;2022-07-19T12:34:09;100784.44;;;47.26;9.24
62124;BME280;48110;47.532;19.078;2022-07-19T12:37:25;100793.66;;;49.03;8.72
62124;BME280;48110;47.532;19.078;2022-07-19T12:40:28;100794.53;;;45.10;10.47
62124;BME280;48110;47.532;19.078;2022-07-19T12:43:31;100783.69;;;42.60;12.50
62124;BME280;48110;47.532;19.078;2022-07-19T12:46:34;100788.34;;;42.30;12.31
62124;BME280;48110;47.532;19.078;2022-07-19T12:49:45;100782.84;;;41.53;12.82
62124;BME280;48110;47.532;19.078;2022-07-19T12:52:49;100783.75;;;43.46;11.58
62124;BME280;48110;47.532;19.078;2022-07-19T12:55:52;100778.16;;;46.41;9.75
62124;BME280;48110;47.532;19.078;2022-07-19T12:58:55;100780.69;;;47.58;9.67
62124;BME280;48110;47.532;19.078;2022-07-19T13:02:17;100776.53;;;48.42;9.09
62124;BME280;48110;47.532;19.078;2022-07-19T13:05:22;100765.78;;;49.46;8.10
62124;BME280;48110;47.532;19.078;2022-07-19T13:08:26;100759.03;;;48.20;9.43
62124;BME280;48110;47.532;19.078;2022-07-19T13:11:28;100761.06;;;47.47;9.31
62124;BME280;48110;47.532;19.078;2022-07-19T13:14:36;100764.72;;;48.99;8.31
62124;BME280;48110;47.532;19.078;2022-07-19T13:17:39;100764.78;;;50.63;7.58
62124;BME280;48110;47.532;19.078;2022-07-19T13:20:43;100757.56;;;50.35;7.73
62124;BME280;48110;47.532;19.078;2022-07-19T13:23:45;100754.25;;;49.63;8.06
62124;BME280;48110;47.532;19.078;2022-07-19T13:26:54;100748.91;;;49.99;7.63
62124;BME280;48110;47.532;19.078;2022-07-19T13:29:58;100745.19;;;49.79;7.83
62124;BME280;48110;47.532;19.078;2022-07-19T13:33:00;100740.78;;;51.14;7.02
62124;BME280;48110;47.532;19.078;2022-07-19T13:36:03;100750.00;;;51.90;7.16
62124;BME280;48110;47.532;19.078;2022-07-19T13:39:06;100732.97;;;50.59;7.29
62124;BME280;48110;47.532;19.078;2022-07-19T13:42:09;100729.69;;;50.61;7.54
62124;BME280;48110;47.532;19.078;2022-07-19T13:45:12;100733.72;;;47.54;8.88
62124;BME280;48110;47.532;19.078;2022-07-19T13:48:15;100726.72;;;47.87;8.74
62124;BME280;48110;47.532;19.078;2022-07-19T13:51:17;100718.19;;;48.87;8.05
62124;BME280;48110;47.532;19.078;2022-07-19T13:54:20;100719.72;;;50.76;7.26
62124;BME280;48110;47.532;19.078;2022-07-19T13:57:23;100704.69;;;46.95;9.15
62124;BME280;48110;47.532;19.078;2022-07-19T14:00:26;100711.69;;;47.46;8.90
62124;BME280;48110;47.532;19.078;2022-07-19T14:03:28;100713.66;;;50.11;7.67
62124;BME280;48110;47.532;19.078;2022-07-19T14:06:31;100708.94;;;51.30;7.54
62124;BME280;48110;47.532;19.078;2022-07-19T14:09:35;100704.69;;;51.22;7.39
62124;BME280;48110;47.532;19.078;2022-07-19T14:12:45;100711.66;;;50.78;7.48
62124;BME280;48110;47.532;19.078;2022-07-19T14:16:10;100707.16;;;51.72;6.73
62124;BME280;48110;47.532;19.078;2022-07-19T14:19:13;100692.22;;;50.14;7.67
62124;BME280;48110;47.532;19.078;2022-07-19T14:22:16;100691.13;;;49.27;8.15
62124;BME280;48110;47.532;19.078;2022-07-19T14:25:19;100690.38;;;47.52;8.99
62124;BME280;48110;47.532;19.078;2022-07-19T14:28:23;100679.31;;;44.42;11.11
62124;BME280;48110;47.532;19.078;2022-07-19T14:31:26;100677.53;;;41.20;13.11
62124;BME280;48110;47.532;19.078;2022-07-19T14:34:29;100666.88;;;40.52;13.59
62124;BME280;48110;47.532;19.078;2022-07-19T14:37:38;100658.38;;;39.82;14.58
62124;BME280;48110;47.532;19.078;2022-07-19T14:40:41;100661.44;;;39.49;14.86
62124;BME280;48110;47.532;19.078;2022-07-19T14:43:44;100663.13;;;40.79;14.00
62124;BME280;48110;47.532;19.078;2022-07-19T14:46:47;100669.16;;;43.76;11.80
62124;BME280;48110;47.532;19.078;2022-07-19T14:49:50;100666.66;;;46.59;9.82
62124;BME280;48110;47.532;19.078;2022-07-19T14:52:53;100676.22;;;48.59;8.58
62124;BME280;48110;47.532;19.078;2022-07-19T14:55:55;100667.84;;;49.19;8.26
62124;BME280;48110;47.532;19.078;2022-07-19T14:58:58;100664.75;;;47.94;8.90
62124;BME280;48110;47.532;19.078;2022-07-19T15:02:01;100676.22;;;46.83;9.52
62124;BME280;48110;47.532;19.078;2022-07-19T15:05:07;100651.06;;;48.45;8.57
62124;BME280;48110;47.532;19.078;2022-07-19T15:08:10;100652.56;;;48.53;8.86
62124;BME280;48110;47.532;19.078;2022-07-19T15:11:13;100653.47;;;45.81;10.91
62124;BME280;48110;47.532;19.078;2022-07-19T15:14:16;100650.87;;;47.73;8.96
62124;BME280;48110;47.532;19.078;2022-07-19T15:17:19;100651.47;;;47.43;9.16
62124;BME280;48110;47.532;19.078;2022-07-19T15:20:22;100647.88;;;47.43;8.88
62124;BME280;48110;47.532;19.078;2022-07-19T15:23:27;100642.59;;;48.04;8.56
62124;BME280;48110;47.532;19.078;2022-07-19T15:26:30;100638.38;;;48.63;8.64
62124;BME280;48110;47.532;19.078;2022-07-19T15:29:34;100639.97;;;48.27;8.80
62124;BME280;48110;47.532;19.078;2022-07-19T15:32:37;100628.44;;;44.26;10.99
62124;BME280;48110;47.532;19.078;2022-07-19T15:35:40;100623.41;;;40.13;13.61
62124;BME280;48110;47.532;19.078;2022-07-19T15:38:42;100618.56;;;38.67;15.07
62124;BME280;48110;47.532;19.078;2022-07-19T15:41:46;100614.28;;;37.60;16.00
62124;BME280;48110;47.532;19.078;2022-07-19T15:44:51;100617.63;;;36.79;17.11
62124;BME280;48110;47.532;19.078;2022-07-19T15:47:54;100619.78;;;35.68;17.97
62124;BME280;48110;47.532;19.078;2022-07-19T15:50:57;100605.59;;;35.23;18.35
62124;BME280;48110;47.532;19.078;2022-07-19T15:54:00;100599.09;;;35.28;18.73
62124;BME280;48110;47.532;19.078;2022-07-19T15:57:03;100602.44;;;35.97;18.16
62124;BME280;48110;47.532;19.078;2022-07-19T16:00:08;100605.06;;;37.93;15.88
62124;BME280;48110;47.532;19.078;2022-07-19T16:03:13;100602.34;;;40.81;14.17